Time;durP1;ratioP1;P1;durP2;ratioP2;P2;SDS_P1;SDS_P2;PMS_P1;PMS_P2;Temp;Humidity;BMP_temperature;BMP_pressure;BME280_temperature;BME280_humidity;BME280_pressure;Samples;Min_cycle;Max_cycle;Signal;HPM_P1;HPM_P2
2023/06/16 00:01:44;;;;;;;16.92;5.25;;;15.60;99.90;;;;;;5084520;28;20024;-86
2023/06/16 00:04:10;;;;;;;6.45;4.43;;;15.50;99.90;;;;;;5081819;28;20028;-86
2023/06/16 00:06:37;;;;;;;8.20;4.78;;;15.50;99.90;;;;;;5086071;28;20039;-85
2023/06/16 00:09:02;;;;;;;10.60;5.25;;;15.40;99.90;;;;;;5089325;28;20141;-85
2023/06/16 00:11:28;;;;;;;9.75;4.80;;;15.40;99.90;;;;;;5076366;28;20111;-85
2023/06/16 00:13:55;;;;;;;9.93;4.47;;;15.30;99.90;;;;;;5082434;28;20494;-85
2023/06/16 00:16:22;;;;;;;9.23;5.10;;;15.20;99.90;;;;;;5068924;28;20044;-85
2023/06/16 00:18:51;;;;;;;10.80;5.10;;;15.20;99.90;;;;;;5082906;28;20071;-85
2023/06/16 00:21:25;;;;;;;7.97;5.18;;;15.20;99.90;;;;;;5085129;28;20101;-85
2023/06/16 00:23:51;;;;;;;10.82;5.05;;;15.10;99.90;;;;;;5082782;28;20031;-85
2023/06/16 00:26:17;;;;;;;8.88;4.40;;;15.10;99.90;;;;;;5071015;28;20035;-85
2023/06/16 00:28:42;;;;;;;5.28;4.07;;;15.10;99.90;;;;;;5087055;28;20028;-85
2023/06/16 00:31:08;;;;;;;11.98;4.80;;;15.00;99.90;;;;;;5078157;28;20497;-85
2023/06/16 00:33:33;;;;;;;9.60;5.13;;;15.00;99.90;;;;;;5085463;28;20031;-85
2023/06/16 00:35:59;;;;;;;7.95;4.90;;;14.90;99.90;;;;;;5080174;28;20044;-86
2023/06/16 00:38:25;;;;;;;9.90;5.43;;;14.80;99.90;;;;;;5084992;28;20116;-85
2023/06/16 00:40:50;;;;;;;8.88;5.25;;;14.80;99.90;;;;;;5077180;28;20057;-85
2023/06/16 00:43:16;;;;;;;10.45;4.50;;;14.70;99.90;;;;;;5086255;28;20027;-85
2023/06/16 00:45:42;;;;;;;6.40;4.57;;;14.70;99.90;;;;;;5081533;28;20032;-85
2023/06/16 00:48:09;;;;;;;13.40;6.00;;;14.60;99.90;;;;;;5087588;28;20444;-85
2023/06/16 00:50:35;;;;;;;12.18;4.95;;;14.60;99.90;;;;;;5072026;28;20358;-85
2023/06/16 00:53:01;;;;;;;8.20;5.47;;;14.50;99.90;;;;;;5082810;28;20487;-85
2023/06/16 00:55:28;;;;;;;10.55;5.03;;;14.50;99.90;;;;;;5072605;28;20048;-85
2023/06/16 00:57:54;;;;;;;7.75;5.30;;;14.40;99.90;;;;;;5085103;28;20031;-84
2023/06/16 01:00:21;;;;;;;7.95;4.88;;;14.40;99.90;;;;;;5086504;28;20065;-85
2023/06/16 01:02:46;;;;;;;11.20;5.53;;;14.40;99.90;;;;;;5081019;28;20371;-85
2023/06/16 01:05:16;;;;;;;21.67;5.95;;;14.50;99.90;;;;;;5081962;28;20035;-85
2023/06/16 01:07:50;;;;;;;7.95;4.82;;;14.60;99.90;;;;;;5076386;28;20058;-85
2023/06/16 01:10:31;;;;;;;8.85;5.38;;;14.70;99.90;;;;;;5084009;28;20024;-85
2023/06/16 01:13:07;;;;;;;9.60;5.05;;;14.80;99.90;;;;;;5085416;28;20028;-85
2023/06/16 01:15:36;;;;;;;10.70;5.43;;;14.80;99.90;;;;;;5080003;28;20035;-85
2023/06/16 01:18:02;;;;;;;10.32;5.47;;;14.80;99.90;;;;;;5084687;28;20035;-85
2023/06/16 01:20:59;;;;;;;14.82;5.97;;;14.80;99.90;;;;;;5088079;28;20031;-85
2023/06/16 01:24:02;;;;;;;12.77;5.38;;;14.90;99.90;;;;;;5088203;28;20051;-85
2023/06/16 01:26:32;;;;;;;11.40;5.32;;;14.90;99.90;;;;;;5068094;28;20016;-86
2023/06/16 01:29:05;;;;;;;9.80;5.35;;;14.90;99.90;;;;;;5063609;28;20405;-85
2023/06/16 01:31:32;;;;;;;10.07;5.55;;;14.90;99.90;;;;;;5084817;28;20062;-85
2023/06/16 01:34:03;;;;;;;10.85;4.90;;;15.00;99.90;;;;;;5083409;28;20024;-84
2023/06/16 01:36:31;;;;;;;9.60;5.60;;;14.90;99.90;;;;;;5069623;28;20078;-85
2023/06/16 01:39:00;;;;;;;13.07;5.38;;;14.90;99.90;;;;;;5077096;28;20763;-85
2023/06/16 01:41:26;;;;;;;10.20;5.28;;;14.90;99.90;;;;;;5087622;28;20024;-85
2023/06/16 01:43:53;;;;;;;8.40;5.57;;;14.90;99.90;;;;;;5079259;28;20128;-85
2023/06/16 01:46:23;;;;;;;8.90;5.22;;;14.90;99.90;;;;;;5081243;28;20025;-86
2023/06/16 01:48:49;;;;;;;9.65;5.45;;;14.90;99.90;;;;;;5084394;28;20457;-85
2023/06/16 01:51:15;;;;;;;7.18;5.00;;;14.90;99.90;;;;;;5081525;28;20036;-84
2023/06/16 01:53:41;;;;;;;11.43;5.57;;;14.90;99.90;;;;;;5077668;28;20020;-84
2023/06/16 01:56:11;;;;;;;9.02;5.50;;;14.90;99.90;;;;;;5076187;28;20031;-84
2023/06/16 01:58:36;;;;;;;12.88;5.57;;;15.00;99.90;;;;;;5068178;28;20028;-84
2023/06/16 02:01:16;;;;;;;15.70;6.25;;;15.00;99.90;;;;;;5084122;28;20039;-84
2023/06/16 02:03:44;;;;;;;9.45;5.50;;;15.00;99.90;;;;;;5077913;28;20052;-84
2023/06/16 02:06:17;;;;;;;8.88;6.07;;;15.10;99.90;;;;;;5071507;28;20028;-85
2023/06/16 02:08:45;;;;;;;9.43;5.57;;;15.10;99.90;;;;;;5073238;28;20024;-85
2023/06/16 02:11:11;;;;;;;11.68;6.03;;;15.10;99.90;;;;;;5081321;28;20111;-85
2023/06/16 02:13:37;;;;;;;12.07;5.72;;;15.10;99.90;;;;;;5086046;28;20476;-84
2023/06/16 02:16:03;;;;;;;14.05;5.55;;;15.10;99.90;;;;;;5086631;28;20547;-85
2023/06/16 02:18:32;;;;;;;7.70;4.97;;;15.10;99.90;;;;;;5073618;28;20029;-85
2023/06/16 02:20:58;;;;;;;6.00;4.38;;;15.00;99.90;;;;;;5087026;28;20028;-84
2023/06/16 02:23:25;;;;;;;12.50;5.72;;;15.00;99.90;;;;;;5081140;28;20032;-85
2023/06/16 02:25:51;;;;;;;9.43;4.63;;;14.90;99.90;;;;;;5076181;28;20051;-84
2023/06/16 02:28:17;;;;;;;9.50;5.10;;;14.90;99.90;;;;;;5081038;28;20024;-84
2023/06/16 02:30:43;;;;;;;10.60;4.88;;;14.90;99.90;;;;;;5078569;28;20028;-84
2023/06/16 02:33:11;;;;;;;14.02;4.95;;;14.90;99.90;;;;;;5080253;28;20109;-84
2023/06/16 02:35:36;;;;;;;8.57;4.68;;;14.90;99.90;;;;;;5083087;28;20062;-84
2023/06/16 02:38:02;;;;;;;9.45;5.28;;;14.90;99.90;;;;;;5075467;28;20477;-85
2023/06/16 02:40:27;;;;;;;11.73;5.28;;;14.90;99.90;;;;;;5069351;28;20071;-84
2023/06/16 02:42:54;;;;;;;8.55;5.05;;;14.80;99.90;;;;;;5068145;28;20434;-84
2023/06/16 02:45:20;;;;;;;10.65;5.68;;;14.80;99.90;;;;;;5068120;28;20545;-84
2023/06/16 02:47:45;;;;;;;10.98;5.10;;;14.70;99.90;;;;;;5076625;28;20066;-84
2023/06/16 02:50:11;;;;;;;9.95;5.07;;;14.70;99.90;;;;;;5066967;28;20033;-84
2023/06/16 02:52:36;;;;;;;7.10;5.03;;;14.70;99.90;;;;;;5072408;28;20082;-85
2023/06/16 02:55:03;;;;;;;7.82;5.15;;;14.70;99.90;;;;;;5067795;28;20043;-85
2023/06/16 02:57:29;;;;;;;12.77;5.57;;;14.70;99.90;;;;;;5072252;28;20036;-84
2023/06/16 02:59:55;;;;;;;8.50;5.70;;;14.70;99.90;;;;;;5066207;28;20086;-85
2023/06/16 03:02:21;;;;;;;12.95;5.82;;;14.60;99.90;;;;;;5074712;28;20021;-85
2023/06/16 03:04:47;;;;;;;6.00;4.43;;;14.60;99.90;;;;;;5074761;28;20028;-85
2023/06/16 03:07:14;;;;;;;10.20;6.30;;;14.60;99.90;;;;;;5075236;28;20059;-85
2023/06/16 03:09:40;;;;;;;8.35;5.50;;;14.50;99.90;;;;;;5072659;28;20025;-84
2023/06/16 03:12:06;;;;;;;9.50;4.78;;;14.50;99.90;;;;;;5069395;28;20543;-85
2023/06/16 03:14:32;;;;;;;6.40;4.75;;;14.40;99.90;;;;;;5076518;28;20024;-85
2023/06/16 03:16:58;;;;;;;9.15;5.18;;;14.30;99.90;;;;;;5076730;28;20036;-85
2023/06/16 03:19:23;;;;;;;8.55;5.25;;;14.30;99.90;;;;;;5070324;28;20116;-85
2023/06/16 03:21:50;;;;;;;12.30;5.47;;;14.20;99.90;;;;;;5074314;28;20111;-85
2023/06/16 03:24:18;;;;;;;7.25;5.65;;;14.10;99.90;;;;;;5071644;28;20478;-85
2023/06/16 03:26:44;;;;;;;12.48;6.13;;;14.10;99.90;;;;;;5073396;28;20108;-84
2023/06/16 03:29:12;;;;;;;12.80;5.60;;;14.00;99.90;;;;;;5079025;28;20058;-85
2023/06/16 03:31:38;;;;;;;13.40;5.35;;;14.10;99.90;;;;;;5073487;28;20037;-85
2023/06/16 03:34:04;;;;;;;11.98;6.28;;;14.10;99.90;;;;;;5076574;28;20032;-84
2023/06/16 03:36:36;;;;;;;9.23;4.95;;;14.20;99.90;;;;;;5078617;28;20086;-85
2023/06/16 03:39:05;;;;;;;9.60;5.40;;;14.20;99.90;;;;;;5066162;28;20056;-84
2023/06/16 03:41:34;;;;;;;11.55;6.88;;;14.30;99.90;;;;;;5070474;28;20025;-84
2023/06/16 03:44:00;;;;;;;9.35;6.30;;;14.20;99.90;;;;;;5072183;28;20047;-85
2023/06/16 03:46:30;;;;;;;12.95;6.22;;;14.20;99.90;;;;;;5067967;28;20020;-84
2023/06/16 03:48:56;;;;;;;12.02;5.97;;;14.20;99.90;;;;;;5075531;28;20020;-85
2023/06/16 03:51:24;;;;;;;8.93;6.20;;;14.20;99.90;;;;;;5077976;28;20039;-84
2023/06/16 03:53:50;;;;;;;11.93;6.25;;;14.20;99.90;;;;;;5080288;28;20024;-84
2023/06/16 03:56:17;;;;;;;10.52;6.15;;;14.10;99.90;;;;;;5075437;28;20116;-84
2023/06/16 03:58:42;;;;;;;12.80;5.63;;;14.20;99.90;;;;;;5080184;28;20036;-84
2023/06/16 04:01:09;;;;;;;10.00;6.82;;;14.10;99.90;;;;;;5074155;28;20029;-85
2023/06/16 04:03:35;;;;;;;10.50;5.60;;;14.10;99.90;;;;;;5077224;28;20058;-85
2023/06/16 04:06:00;;;;;;;9.93;5.78;;;14.10;99.90;;;;;;5070437;28;20025;-84
2023/06/16 04:08:26;;;;;;;11.77;5.90;;;14.10;99.90;;;;;;5078305;28;20035;-85
2023/06/16 04:10:57;;;;;;;11.98;6.22;;;14.10;99.90;;;;;;5072795;28;20028;-84
2023/06/16 04:13:23;;;;;;;15.07;6.47;;;14.10;99.90;;;;;;5069329;28;20035;-85
2023/06/16 04:15:49;;;;;;;18.50;6.20;;;14.10;99.90;;;;;;5071752;28;20044;-85
2023/06/16 04:18:14;;;;;;;9.25;6.18;;;14.10;99.90;;;;;;5070319;28;20028;-85
2023/06/16 04:20:40;;;;;;;13.32;6.93;;;14.10;99.90;;;;;;5079366;28;20023;-84
2023/06/16 04:23:09;;;;;;;15.50;6.40;;;14.10;99.90;;;;;;5074294;28;20046;-84
2023/06/16 04:25:35;;;;;;;13.02;5.78;;;14.20;99.90;;;;;;5080326;28;20029;-85
2023/06/16 04:28:02;;;;;;;18.23;6.65;;;14.20;99.90;;;;;;5077200;28;20029;-84
2023/06/16 04:30:30;;;;;;;12.75;5.90;;;14.20;99.90;;;;;;5075588;28;20066;-85
2023/06/16 04:32:59;;;;;;;14.68;6.00;;;14.30;99.90;;;;;;5068710;28;20045;-85
2023/06/16 04:35:34;;;;;;;7.57;5.70;;;14.30;99.90;;;;;;5063095;28;20094;-85
2023/06/16 04:38:01;;;;;;;10.50;6.00;;;14.30;99.90;;;;;;5061380;28;20031;-85
2023/06/16 04:40:27;;;;;;;12.13;6.82;;;14.40;99.90;;;;;;5071268;28;20035;-85
2023/06/16 04:42:55;;;;;;;14.68;6.88;;;14.40;99.90;;;;;;5063714;28;20370;-85
2023/06/16 04:45:21;;;;;;;14.73;6.70;;;14.40;99.90;;;;;;5070726;28;20036;-84
2023/06/16 04:47:50;;;;;;;11.95;6.65;;;14.50;99.90;;;;;;5080005;28;20059;-85
2023/06/16 04:50:16;;;;;;;15.82;6.70;;;14.50;99.90;;;;;;5071117;28;20082;-84
2023/06/16 04:52:42;;;;;;;19.02;6.85;;;14.50;99.90;;;;;;5079111;28;20036;-85
2023/06/16 04:55:08;;;;;;;19.48;7.85;;;14.60;99.90;;;;;;5076223;28;20442;-84
2023/06/16 04:57:35;;;;;;;15.13;6.40;;;14.60;99.90;;;;;;5061748;28;21315;-84
2023/06/16 05:00:03;;;;;;;18.38;7.07;;;14.60;99.90;;;;;;5064413;28;20079;-84
2023/06/16 05:02:28;;;;;;;13.13;6.57;;;14.70;99.90;;;;;;5075803;28;20406;-85
2023/06/16 05:04:56;;;;;;;17.88;7.50;;;14.70;99.90;;;;;;5065300;28;20033;-85
2023/06/16 05:07:21;;;;;;;10.55;6.68;;;14.70;99.90;;;;;;5073482;28;20025;-84
2023/06/16 05:09:47;;;;;;;19.88;6.70;;;14.70;99.90;;;;;;5081474;28;20020;-84
2023/06/16 05:12:12;;;;;;;19.98;6.65;;;14.70;99.90;;;;;;5065912;28;20383;-85
2023/06/16 05:14:38;;;;;;;14.38;6.90;;;14.80;99.90;;;;;;5078130;28;20359;-85
2023/06/16 05:17:04;;;;;;;20.90;6.75;;;14.80;99.90;;;;;;5074563;28;20033;-85
2023/06/16 05:19:31;;;;;;;17.23;7.00;;;14.80;99.90;;;;;;5078260;28;20032;-84
2023/06/16 05:21:57;;;;;;;16.95;6.03;;;14.80;99.90;;;;;;5081023;28;20032;-85
2023/06/16 05:24:23;;;;;;;16.48;7.22;;;14.90;99.90;;;;;;5078118;28;20426;-84
2023/06/16 05:26:49;;;;;;;17.30;7.43;;;14.90;99.90;;;;;;5083439;28;20038;-85
2023/06/16 05:29:14;;;;;;;14.77;6.30;;;14.90;99.90;;;;;;5071812;28;20028;-85
2023/06/16 05:31:40;;;;;;;22.13;7.50;;;14.90;99.90;;;;;;5078576;28;20117;-85
2023/06/16 05:34:06;;;;;;;14.65;6.03;;;14.90;99.90;;;;;;5081845;28;20036;-85
2023/06/16 05:36:34;;;;;;;17.48;7.88;;;14.80;99.90;;;;;;5072686;28;20046;-85
2023/06/16 05:39:01;;;;;;;16.92;7.00;;;14.90;99.90;;;;;;5077972;28;20077;-85
2023/06/16 05:41:28;;;;;;;20.42;7.50;;;14.90;99.90;;;;;;5074716;28;20052;-85
2023/06/16 05:43:55;;;;;;;22.55;7.72;;;14.90;99.90;;;;;;5065506;28;20032;-85
2023/06/16 05:46:21;;;;;;;11.10;6.35;;;14.90;99.90;;;;;;5072955;28;20032;-84
2023/06/16 05:48:47;;;;;;;15.10;7.00;;;14.90;99.90;;;;;;5073668;28;20077;-85
2023/06/16 05:51:12;;;;;;;22.42;7.38;;;14.80;99.90;;;;;;5076253;28;20036;-86
2023/06/16 05:53:38;;;;;;;19.23;7.10;;;14.80;99.90;;;;;;5076641;28;20035;-84
2023/06/16 05:56:04;;;;;;;19.63;7.78;;;14.90;99.90;;;;;;5082416;28;20482;-84
2023/06/16 05:58:33;;;;;;;17.13;7.35;;;14.80;99.90;;;;;;5081655;28;20046;-84
2023/06/16 06:00:58;;;;;;;21.48;7.72;;;14.80;99.90;;;;;;5072798;28;20081;-83
2023/06/16 06:03:24;;;;;;;20.10;7.30;;;14.70;99.90;;;;;;5068853;28;20435;-84
2023/06/16 06:05:50;;;;;;;15.82;7.72;;;14.70;99.90;;;;;;5061986;28;20036;-83
2023/06/16 06:08:16;;;;;;;19.00;7.30;;;14.70;99.90;;;;;;5071536;28;20040;-83
2023/06/16 06:10:41;;;;;;;8.88;6.32;;;14.70;99.90;;;;;;5074390;28;20028;-83
2023/06/16 06:13:07;;;;;;;15.25;7.57;;;14.60;99.90;;;;;;5072953;28;20028;-83
2023/06/16 06:15:32;;;;;;;16.80;7.90;;;14.60;99.90;;;;;;5071056;28;20048;-83
2023/06/16 06:17:58;;;;;;;13.20;7.00;;;14.60;99.90;;;;;;5074963;28;20311;-83
2023/06/16 06:20:23;;;;;;;15.57;7.25;;;14.50;99.90;;;;;;5072740;28;20024;-83
2023/06/16 06:22:50;;;;;;;14.20;6.72;;;14.50;99.90;;;;;;5076821;28;20037;-82
2023/06/16 06:25:15;;;;;;;12.55;7.13;;;14.50;99.90;;;;;;5071632;28;20021;-83
2023/06/16 06:27:41;;;;;;;12.70;7.85;;;14.50;99.90;;;;;;5072032;28;20027;-82
2023/06/16 06:30:08;;;;;;;14.57;7.95;;;14.50;99.90;;;;;;5073592;28;20547;-82
2023/06/16 06:32:34;;;;;;;15.40;7.65;;;14.50;99.90;;;;;;5072475;28;20051;-82
2023/06/16 06:35:00;;;;;;;21.33;8.85;;;14.50;99.90;;;;;;5079863;28;20127;-82
2023/06/16 06:37:32;;;;;;;19.08;8.30;;;14.40;99.90;;;;;;5073585;28;20128;-82
2023/06/16 06:39:57;;;;;;;17.42;7.97;;;14.40;99.90;;;;;;5080719;28;20020;-82
2023/06/16 06:42:23;;;;;;;11.48;7.30;;;14.50;99.90;;;;;;5068452;28;20078;-82
2023/06/16 06:44:49;;;;;;;28.85;9.68;;;14.40;99.90;;;;;;5069455;28;20071;-82
2023/06/16 06:47:15;;;;;;;13.48;7.60;;;14.50;99.90;;;;;;5073789;28;20112;-82
2023/06/16 06:49:41;;;;;;;16.75;7.35;;;14.50;99.90;;;;;;5072987;28;20028;-83
2023/06/16 06:52:07;;;;;;;13.77;7.55;;;14.50;99.90;;;;;;5075895;28;20089;-83
2023/06/16 06:54:35;;;;;;;12.98;7.80;;;14.50;99.90;;;;;;5080194;28;20089;-84
2023/06/16 06:57:01;;;;;;;14.70;7.13;;;14.60;99.90;;;;;;5074581;28;20473;-82
2023/06/16 06:59:27;;;;;;;13.00;6.72;;;14.60;99.90;;;;;;5077342;28;20035;-82
2023/06/16 07:01:52;;;;;;;12.70;6.82;;;14.70;99.90;;;;;;5082010;28;20040;-82
2023/06/16 07:04:18;;;;;;;17.83;7.70;;;14.70;99.90;;;;;;5082398;28;20024;-81
2023/06/16 07:06:47;;;;;;;14.93;7.53;;;14.70;99.90;;;;;;5085045;28;20028;-84
2023/06/16 07:09:12;;;;;;;17.55;8.45;;;14.70;99.90;;;;;;5080503;28;20543;-82
2023/06/16 07:11:38;;;;;;;16.83;7.57;;;14.70;99.90;;;;;;5081237;28;20146;-82
2023/06/16 07:14:04;;;;;;;12.02;6.72;;;14.80;99.90;;;;;;5077498;28;20132;-82
2023/06/16 07:16:30;;;;;;;9.20;6.70;;;14.80;99.90;;;;;;5077618;28;20063;-82
2023/06/16 07:18:56;;;;;;;10.70;6.03;;;14.90;99.90;;;;;;5075003;28;20056;-83
2023/06/16 07:21:21;;;;;;;8.55;5.20;;;14.90;99.90;;;;;;5074783;28;20016;-83
2023/06/16 07:23:47;;;;;;;10.45;6.45;;;14.90;99.90;;;;;;5077954;28;20040;-82
2023/06/16 07:26:12;;;;;;;11.77;6.15;;;15.00;99.90;;;;;;5079100;28;20466;-83
2023/06/16 07:28:39;;;;;;;9.45;6.07;;;15.10;99.90;;;;;;5083289;28;20028;-83
2023/06/16 07:31:05;;;;;;;15.82;7.25;;;15.20;99.90;;;;;;5077650;28;20052;-83
2023/06/16 07:33:31;;;;;;;9.30;5.95;;;15.30;99.90;;;;;;5077764;28;20489;-83
2023/06/16 07:35:56;;;;;;;6.15;5.28;;;15.30;99.90;;;;;;5070450;28;20041;-83
2023/06/16 07:38:22;;;;;;;9.27;5.25;;;15.30;99.90;;;;;;5075139;28;20024;-82
2023/06/16 07:40:47;;;;;;;10.25;5.20;;;15.40;99.90;;;;;;5072606;28;20028;-82
2023/06/16 07:43:13;;;;;;;8.20;5.50;;;15.40;99.90;;;;;;5066490;28;20051;-82
2023/06/16 07:45:38;;;;;;;8.02;4.97;;;15.50;99.90;;;;;;5075677;28;20076;-82
2023/06/16 07:48:06;;;;;;;9.23;4.63;;;15.50;99.90;;;;;;5077647;28;20394;-83
2023/06/16 07:50:31;;;;;;;12.48;5.15;;;15.40;99.90;;;;;;5087181;28;20503;-82
2023/06/16 07:52:57;;;;;;;6.65;4.32;;;15.40;99.90;;;;;;5086698;28;20119;-83
2023/06/16 07:55:22;;;;;;;9.18;5.05;;;15.40;99.90;;;;;;5082000;28;20084;-82
2023/06/16 07:57:51;;;;;;;8.07;4.75;;;15.40;99.90;;;;;;5083291;28;20028;-83
2023/06/16 08:00:18;;;;;;;7.00;4.50;;;15.50;99.90;;;;;;5075149;28;20032;-83
2023/06/16 08:02:44;;;;;;;7.38;4.70;;;15.50;99.90;;;;;;5078640;28;20145;-83
2023/06/16 08:05:16;;;;;;;7.47;4.97;;;15.60;99.90;;;;;;5080142;28;20028;-83
2023/06/16 08:07:43;;;;;;;7.32;4.65;;;15.60;99.90;;;;;;5079449;28;20063;-83
2023/06/16 08:10:09;;;;;;;6.82;4.65;;;15.60;99.90;;;;;;5083939;28;20024;-83
2023/06/16 08:12:35;;;;;;;7.13;4.53;;;15.70;99.90;;;;;;5086286;28;20419;-83
2023/06/16 08:15:02;;;;;;;9.43;4.70;;;15.70;99.90;;;;;;5079550;28;20039;-83
2023/06/16 08:17:29;;;;;;;10.32;4.50;;;15.80;99.90;;;;;;5066466;28;20032;-83
2023/06/16 08:19:54;;;;;;;13.82;5.20;;;15.80;99.90;;;;;;5074920;28;20507;-83
2023/06/16 08:22:21;;;;;;;11.15;4.63;;;15.80;99.90;;;;;;5076195;28;20033;-83
2023/06/16 08:24:47;;;;;;;7.50;4.13;;;15.90;99.90;;;;;;5075695;28;20012;-83
2023/06/16 08:27:12;;;;;;;5.63;4.22;;;16.00;99.90;;;;;;5076961;28;20032;-83
2023/06/16 08:29:39;;;;;;;5.95;3.70;;;16.00;99.90;;;;;;5077709;28;20024;-83
2023/06/16 08:32:06;;;;;;;13.07;4.00;;;16.10;99.90;;;;;;5075139;28;20063;-82
2023/06/16 08:34:32;;;;;;;8.93;4.45;;;16.20;99.90;;;;;;5074346;28;20016;-83
2023/06/16 08:36:58;;;;;;;5.55;3.75;;;16.30;99.90;;;;;;5076408;28;20500;-84
2023/06/16 08:39:24;;;;;;;6.07;3.58;;;16.20;99.90;;;;;;5080815;28;20028;-84
2023/06/16 08:41:50;;;;;;;6.82;3.25;;;16.30;99.90;;;;;;5081298;28;20032;-83
2023/06/16 08:44:19;;;;;;;6.40;3.40;;;16.30;99.90;;;;;;5072589;28;20477;-83
2023/06/16 08:46:45;;;;;;;3.83;3.08;;;16.30;99.90;;;;;;5079326;28;20107;-83
2023/06/16 08:49:14;;;;;;;8.15;3.00;;;16.40;99.90;;;;;;5070427;28;20047;-83
2023/06/16 08:51:47;;;;;;;4.50;2.70;;;16.40;99.90;;;;;;5074757;28;20027;-83
2023/06/16 08:54:15;;;;;;;3.25;2.53;;;16.40;99.90;;;;;;5074011;28;20121;-83
2023/06/16 08:56:43;;;;;;;7.38;3.03;;;16.40;99.90;;;;;;5069854;28;20188;-83
2023/06/16 08:59:10;;;;;;;3.40;2.22;;;16.50;99.90;;;;;;5072165;28;20020;-84
2023/06/16 09:01:39;;;;;;;3.10;2.35;;;16.50;99.90;;;;;;5078195;28;20024;-83
2023/06/16 09:04:08;;;;;;;12.18;2.47;;;16.60;99.90;;;;;;5074651;28;20028;-83
2023/06/16 09:06:38;;;;;;;2.20;2.00;;;16.60;99.90;;;;;;5079642;28;20436;-84
2023/06/16 09:09:04;;;;;;;4.05;2.47;;;16.70;99.90;;;;;;5080937;28;20278;-83
2023/06/16 09:11:30;;;;;;;4.30;2.00;;;16.70;99.90;;;;;;5072991;28;20051;-84
2023/06/16 09:13:56;;;;;;;2.25;2.05;;;16.70;99.90;;;;;;5075973;28;20040;-84
2023/06/16 09:16:23;;;;;;;3.90;2.72;;;16.70;99.90;;;;;;5078875;28;20044;-84
2023/06/16 09:18:49;;;;;;;3.22;2.13;;;16.80;99.90;;;;;;5072087;28;20409;-84
2023/06/16 09:21:22;;;;;;;2.63;2.28;;;16.80;99.90;;;;;;5076720;28;20507;-83
2023/06/16 09:23:56;;;;;;;3.72;2.60;;;16.90;99.90;;;;;;5076307;28;20107;-85
2023/06/16 09:26:22;;;;;;;4.45;2.70;;;16.90;99.90;;;;;;5073151;28;20028;-83
2023/06/16 09:28:47;;;;;;;4.28;2.92;;;17.00;99.90;;;;;;5069308;28;20039;-84
2023/06/16 09:31:15;;;;;;;4.40;3.20;;;17.10;99.90;;;;;;5070184;28;20542;-84
2023/06/16 09:33:43;;;;;;;6.55;3.50;;;17.20;99.90;;;;;;5070904;28;20642;-83
2023/06/16 09:36:09;;;;;;;6.13;3.28;;;17.20;99.90;;;;;;5079216;28;20052;-85
2023/06/16 09:38:38;;;;;;;4.40;2.67;;;17.30;99.90;;;;;;5073793;28;20107;-84
2023/06/16 09:41:08;;;;;;;8.73;3.15;;;17.30;99.90;;;;;;5083349;28;20021;-84
2023/06/16 09:43:36;;;;;;;4.32;3.33;;;17.30;99.90;;;;;;5079745;28;20028;-84
2023/06/16 09:46:02;;;;;;;4.85;2.80;;;17.30;99.90;;;;;;5078422;28;20029;-83
2023/06/16 09:48:34;;;;;;;6.28;3.20;;;17.40;99.90;;;;;;5085070;28;20111;-84
2023/06/16 09:50:59;;;;;;;4.25;3.45;;;17.30;99.90;;;;;;5077846;28;20025;-83
2023/06/16 09:53:26;;;;;;;6.05;3.58;;;17.40;99.90;;;;;;5070088;28;20040;-83
2023/06/16 09:55:54;;;;;;;7.25;3.33;;;17.30;99.90;;;;;;5077398;28;20044;-84
2023/06/16 09:58:20;;;;;;;4.35;3.13;;;17.30;99.90;;;;;;5084982;28;20382;-83
2023/06/16 10:00:54;;;;;;;4.80;3.50;;;17.20;99.90;;;;;;5067512;28;20024;-83
2023/06/16 10:03:20;;;;;;;5.85;3.42;;;17.20;99.90;;;;;;5074988;28;20027;-84
2023/06/16 10:05:52;;;;;;;8.45;3.33;;;17.20;99.90;;;;;;5087553;28;20035;-83
2023/06/16 10:08:19;;;;;;;4.07;3.00;;;17.10;99.90;;;;;;5083294;28;20475;-83
2023/06/16 10:10:47;;;;;;;3.50;3.20;;;17.10;99.90;;;;;;5084839;28;20035;-83
2023/06/16 10:13:16;;;;;;;7.60;3.60;;;17.10;99.90;;;;;;5087386;28;20035;-83
2023/06/16 10:15:43;;;;;;;7.60;3.70;;;17.10;99.90;;;;;;5087292;28;20081;-83
2023/06/16 10:18:12;;;;;;;6.32;3.33;;;17.10;99.90;;;;;;5087542;28;20495;-84
2023/06/16 10:20:38;;;;;;;3.45;3.08;;;17.10;99.90;;;;;;5087702;28;20042;-83
2023/06/16 10:23:06;;;;;;;6.55;3.58;;;17.10;99.90;;;;;;5085447;28;20101;-85
2023/06/16 10:25:33;;;;;;;7.97;3.70;;;17.10;99.90;;;;;;5073215;28;20044;-82
2023/06/16 10:28:01;;;;;;;6.63;3.45;;;17.10;99.90;;;;;;5087602;28;20036;-82
2023/06/16 10:30:28;;;;;;;8.20;3.78;;;17.10;99.90;;;;;;5087380;28;20078;-81
2023/06/16 10:32:57;;;;;;;6.30;3.78;;;17.00;99.90;;;;;;5091550;28;20059;-81
2023/06/16 10:35:22;;;;;;;5.78;2.85;;;17.10;99.90;;;;;;5083005;28;20375;-82
2023/06/16 10:37:53;;;;;;;5.80;3.60;;;17.00;99.90;;;;;;5076210;28;20085;-82
2023/06/16 10:40:22;;;;;;;6.30;3.25;;;17.10;99.90;;;;;;5063721;28;20052;-81
2023/06/16 10:42:56;;;;;;;4.70;2.80;;;17.10;99.90;;;;;;5077495;28;20524;-83
2023/06/16 10:45:26;;;;;;;6.18;3.53;;;17.10;99.90;;;;;;5076238;28;20082;-80
2023/06/16 10:47:56;;;;;;;5.97;3.35;;;17.10;99.90;;;;;;5081120;28;20024;-81
2023/06/16 10:50:35;;;;;;;4.07;3.38;;;17.10;99.90;;;;;;5079168;28;20020;-81
2023/06/16 10:53:14;;;;;;;7.35;3.55;;;17.10;99.90;;;;;;5071845;28;20048;-81
2023/06/16 10:55:45;;;;;;;5.18;3.78;;;17.00;99.90;;;;;;5075728;28;20413;-82
2023/06/16 10:58:16;;;;;;;4.35;3.33;;;17.00;99.90;;;;;;5074328;28;20531;-81
2023/06/16 11:00:55;;;;;;;4.60;3.25;;;17.00;99.90;;;;;;5077379;28;20469;-81
2023/06/16 11:03:21;;;;;;;4.65;3.45;;;17.00;99.90;;;;;;5069311;28;20111;-80
2023/06/16 11:05:48;;;;;;;5.88;3.60;;;16.90;99.90;;;;;;5069674;28;20461;-80
2023/06/16 11:08:15;;;;;;;3.90;3.42;;;16.90;99.90;;;;;;5075227;28;20032;-81
2023/06/16 11:10:49;;;;;;;4.72;3.17;;;17.00;99.90;;;;;;5086569;28;20028;-81
2023/06/16 11:13:15;;;;;;;4.35;3.75;;;16.90;99.90;;;;;;5077387;28;20017;-81
2023/06/16 11:15:47;;;;;;;4.60;3.13;;;16.90;99.90;;;;;;5076454;28;20044;-81
2023/06/16 11:18:13;;;;;;;3.22;2.92;;;16.90;99.90;;;;;;5072485;28;20024;-80
2023/06/16 11:20:39;;;;;;;5.35;3.17;;;17.00;99.90;;;;;;5076289;28;20028;-81
2023/06/16 11:23:05;;;;;;;5.55;3.70;;;17.00;99.90;;;;;;5081034;28;20060;-81
2023/06/16 11:25:31;;;;;;;7.45;2.72;;;17.10;99.90;;;;;;5080960;28;20024;-81
2023/06/16 11:27:57;;;;;;;4.78;3.20;;;17.10;99.90;;;;;;5076656;28;20097;-81
2023/06/16 11:30:24;;;;;;;5.13;3.17;;;17.20;99.90;;;;;;5076581;28;20481;-81
2023/06/16 11:32:51;;;;;;;7.38;3.83;;;17.30;99.90;;;;;;5077640;28;20377;-82
2023/06/16 11:35:17;;;;;;;7.07;3.25;;;17.30;99.90;;;;;;5077635;28;20497;-80
2023/06/16 11:37:54;;;;;;;5.22;3.67;;;17.40;99.90;;;;;;5073335;28;20023;-81
2023/06/16 11:40:24;;;;;;;5.28;3.53;;;17.50;99.90;;;;;;5068309;28;20120;-82
2023/06/16 11:43:07;;;;;;;3.33;3.03;;;17.50;99.90;;;;;;5078151;28;20474;-81
2023/06/16 11:45:34;;;;;;;4.50;3.55;;;17.60;99.90;;;;;;5075198;28;20305;-82
2023/06/16 11:48:02;;;;;;;5.43;2.95;;;17.60;99.90;;;;;;5075141;28;20022;-82
2023/06/16 11:50:29;;;;;;;4.22;2.78;;;17.70;99.90;;;;;;5082807;28;20520;-81
2023/06/16 11:52:55;;;;;;;6.50;3.10;;;17.80;99.90;;;;;;5065097;28;20540;-81
2023/06/16 11:55:21;;;;;;;4.35;3.35;;;17.80;99.90;;;;;;5081588;28;20074;-81
2023/06/16 11:57:47;;;;;;;3.60;2.92;;;17.70;99.90;;;;;;5066402;28;20294;-82
2023/06/16 12:00:14;;;;;;;3.63;2.88;;;17.70;99.90;;;;;;5079623;28;20469;-81
2023/06/16 12:02:42;;;;;;;3.58;2.65;;;17.70;99.90;;;;;;5084612;28;20016;-82
2023/06/16 12:05:23;;;;;;;5.55;3.70;;;17.70;99.90;;;;;;5079394;28;20031;-81
2023/06/16 12:07:48;;;;;;;3.47;3.10;;;17.80;99.90;;;;;;5068493;28;20038;-81
2023/06/16 12:10:16;;;;;;;4.88;3.22;;;17.80;99.90;;;;;;5066264;28;20029;-82
2023/06/16 12:12:43;;;;;;;4.65;3.20;;;17.90;99.90;;;;;;5078118;28;20048;-82
2023/06/16 12:15:16;;;;;;;6.13;3.33;;;17.90;99.90;;;;;;5089645;28;20028;-82
2023/06/16 12:17:42;;;;;;;5.97;3.28;;;18.00;99.90;;;;;;5074108;28;20114;-81
2023/06/16 12:20:12;;;;;;;5.78;3.25;;;18.10;99.90;;;;;;5084398;28;20132;-81
2023/06/16 12:22:38;;;;;;;6.25;3.20;;;18.10;99.90;;;;;;5084219;28;20024;-81
2023/06/16 12:25:13;;;;;;;5.72;3.60;;;18.10;99.90;;;;;;5077506;28;20055;-82
2023/06/16 12:27:49;;;;;;;5.18;3.45;;;18.20;99.90;;;;;;5075970;28;20043;-84
2023/06/16 12:30:15;;;;;;;5.63;2.85;;;18.20;99.90;;;;;;5072212;28;20036;-82
2023/06/16 12:32:41;;;;;;;3.40;2.60;;;18.20;99.90;;;;;;5063996;28;20348;-82
2023/06/16 12:35:08;;;;;;;4.28;3.40;;;18.30;99.90;;;;;;5062571;28;20071;-81
2023/06/16 12:37:34;;;;;;;8.68;3.40;;;18.30;99.90;;;;;;5077781;28;20127;-82
2023/06/16 12:40:00;;;;;;;6.82;4.25;;;18.40;99.90;;;;;;5081249;28;20071;-82
2023/06/16 12:42:30;;;;;;;6.28;3.53;;;18.40;99.90;;;;;;5065052;28;20036;-83
2023/06/16 12:44:59;;;;;;;3.97;2.80;;;18.50;99.90;;;;;;5066291;28;20082;-82